sensor_id;sensor_type;location;lat;lon;timestamp;pressure;altitude;pressure_sealevel;temperature;humidity
16544;BME280;8384;47.996;7.786;2024-01-15T00:01:02;97987.47;;;-4.05;100.00
16544;BME280;8384;47.996;7.786;2024-01-15T00:03:27;98006.69;;;-3.95;100.00
16544;BME280;8384;47.996;7.786;2024-01-15T00:05:52;97986.13;;;-4.16;100.00
16544;BME280;8384;47.996;7.786;2024-01-15T00:08:17;97993.97;;;-3.93;100.00
16544;BME280;8384;47.996;7.786;2024-01-15T00:10:43;97981.50;;;-4.08;100.00
16544;BME280;8384;47.996;7.786;2024-01-15T00:13:08;97980.28;;;-4.05;100.00
16544;BME280;8384;47.996;7.786;2024-01-15T00:15:33;97985.72;;;-3.98;100.00
16544;BME280;8384;47.996;7.786;2024-01-15T00:17:59;97967.50;;;-4.10;100.00
16544;BME280;8384;47.996;7.786;2024-01-15T00:20:24;97981.72;;;-4.24;100.00
16544;BME280;8384;47.996;7.786;2024-01-15T00:22:49;97981.88;;;-4.26;100.00
16544;BME280;8384;47.996;7.786;2024-01-15T00:25:14;97974.06;;;-4.12;100.00
16544;BME280;8384;47.996;7.786;2024-01-15T00:27:40;97916.94;;;-4.63;100.00
16544;BME280;8384;47.996;7.786;2024-01-15T00:30:05;97971.28;;;-4.34;100.00
16544;BME280;8384;47.996;7.786;2024-01-15T00:32:31;97966.78;;;-4.33;100.00
16544;BME280;8384;47.996;7.786;2024-01-15T00:34:56;97962.03;;;-4.38;100.00
16544;BME280;8384;47.996;7.786;2024-01-15T00:37:22;97954.19;;;-4.55;100.00
16544;BME280;8384;47.996;7.786;2024-01-15T00:39:47;97957.59;;;-4.46;100.00
16544;BME280;8384;47.996;7.786;2024-01-15T00:42:12;97947.28;;;-4.49;100.00
16544;BME280;8384;47.996;7.786;2024-01-15T00:44:37;97935.59;;;-4.48;100.00
16544;BME280;8384;47.996;7.786;2024-01-15T00:47:03;97934.69;;;-4.55;100.00
16544;BME280;8384;47.996;7.786;2024-01-15T00:49:28;97940.94;;;-4.48;100.00
16544;BME280;8384;47.996;7.786;2024-01-15T00:51:53;97947.41;;;-4.57;100.00
16544;BME280;8384;47.996;7.786;2024-01-15T00:54:19;97929.66;;;-4.65;100.00
16544;BME280;8384;47.996;7.786;2024-01-15T00:56:44;97928.88;;;-4.74;100.00
16544;BME280;8384;47.996;7.786;2024-01-15T00:59:09;97925.50;;;-4.68;100.00
16544;BME280;8384;47.996;7.786;2024-01-15T01:01:36;97916.56;;;-4.75;100.00
16544;BME280;8384;47.996;7.786;2024-01-15T01:04:03;97914.53;;;-4.73;100.00
16544;BME280;8384;47.996;7.786;2024-01-15T01:06:28;97914.91;;;-4.76;100.00
16544;BME280;8384;47.996;7.786;2024-01-15T01:08:53;97919.22;;;-4.75;100.00
16544;BME280;8384;47.996;7.786;2024-01-15T01:11:18;97924.56;;;-4.90;100.00
16544;BME280;8384;47.996;7.786;2024-01-15T01:13:44;97913.72;;;-4.88;100.00
16544;BME280;8384;47.996;7.786;2024-01-15T01:16:09;97913.06;;;-4.90;100.00
16544;BME280;8384;47.996;7.786;2024-01-15T01:18:34;97873.72;;;-5.03;100.00
16544;BME280;8384;47.996;7.786;2024-01-15T01:21:00;97920.44;;;-4.77;100.00
16544;BME280;8384;47.996;7.786;2024-01-15T01:23:25;97921.00;;;-4.82;100.00
16544;BME280;8384;47.996;7.786;2024-01-15T01:25:51;97901.75;;;-4.92;100.00
16544;BME280;8384;47.996;7.786;2024-01-15T01:28:16;97929.81;;;-4.67;100.00
16544;BME280;8384;47.996;7.786;2024-01-15T01:30:41;97892.19;;;-4.87;100.00
16544;BME280;8384;47.996;7.786;2024-01-15T01:33:06;97904.16;;;-4.83;100.00
16544;BME280;8384;47.996;7.786;2024-01-15T01:35:32;97924.75;;;-4.61;100.00
16544;BME280;8384;47.996;7.786;2024-01-15T01:37:57;97910.69;;;-4.55;100.00
16544;BME280;8384;47.996;7.786;2024-01-15T01:40:22;97913.34;;;-4.40;100.00
16544;BME280;8384;47.996;7.786;2024-01-15T01:42:48;97914.53;;;-3.91;100.00
16544;BME280;8384;47.996;7.786;2024-01-15T01:45:14;97899.22;;;-3.82;100.00
16544;BME280;8384;47.996;7.786;2024-01-15T01:47:39;97866.03;;;-3.95;100.00
16544;BME280;8384;47.996;7.786;2024-01-15T01:50:05;97918.50;;;-3.65;100.00
16544;BME280;8384;47.996;7.786;2024-01-15T01:52:31;97877.09;;;-3.76;100.00
16544;BME280;8384;47.996;7.786;2024-01-15T01:54:57;97879.91;;;-3.84;100.00
16544;BME280;8384;47.996;7.786;2024-01-15T01:57:23;97870.28;;;-4.00;100.00
16544;BME280;8384;47.996;7.786;2024-01-15T01:59:49;97841.97;;;-4.38;100.00
16544;BME280;8384;47.996;7.786;2024-01-15T02:02:16;97949.84;;;-3.74;100.00
16544;BME280;8384;47.996;7.786;2024-01-15T02:04:47;97856.72;;;-4.57;100.00
16544;BME280;8384;47.996;7.786;2024-01-15T02:07:15;97863.53;;;-4.85;100.00
16544;BME280;8384;47.996;7.786;2024-01-15T02:09:44;97934.34;;;-4.37;100.00
16544;BME280;8384;47.996;7.786;2024-01-15T02:12:09;97923.38;;;-4.27;100.00
16544;BME280;8384;47.996;7.786;2024-01-15T02:14:39;97891.19;;;-4.56;100.00
16544;BME280;8384;47.996;7.786;2024-01-15T02:17:04;97842.66;;;-4.66;100.00
16544;BME280;8384;47.996;7.786;2024-01-15T02:19:35;97858.91;;;-4.61;100.00
16544;BME280;8384;47.996;7.786;2024-01-15T02:22:00;97955.19;;;-4.11;100.00
16544;BME280;8384;47.996;7.786;2024-01-15T02:24:25;97910.53;;;-4.17;100.00
16544;BME280;8384;47.996;7.786;2024-01-15T02:26:53;97967.03;;;-3.98;100.00
16544;BME280;8384;47.996;7.786;2024-01-15T02:29:22;97948.09;;;-4.03;100.00
16544;BME280;8384;47.996;7.786;2024-01-15T02:31:53;97857.72;;;-4.43;100.00
16544;BME280;8384;47.996;7.786;2024-01-15T02:34:22;97786.75;;;-4.74;100.00
16544;BME280;8384;47.996;7.786;2024-01-15T02:36:47;97937.56;;;-3.68;100.00
16544;BME280;8384;47.996;7.786;2024-01-15T02:39:12;97885.84;;;-4.04;100.00
16544;BME280;8384;47.996;7.786;2024-01-15T02:41:40;97933.72;;;-3.66;100.00
16544;BME280;8384;47.996;7.786;2024-01-15T02:44:11;97761.81;;;-4.67;100.00
16544;BME280;8384;47.996;7.786;2024-01-15T02:46:37;97894.34;;;-3.79;100.00
16544;BME280;8384;47.996;7.786;2024-01-15T02:49:02;97854.19;;;-4.07;100.00
16544;BME280;8384;47.996;7.786;2024-01-15T02:51:33;97839.34;;;-4.16;100.00
16544;BME280;8384;47.996;7.786;2024-01-15T02:53:59;97789.38;;;-4.23;100.00
16544;BME280;8384;47.996;7.786;2024-01-15T02:56:25;97892.19;;;-3.47;100.00
16544;BME280;8384;47.996;7.786;2024-01-15T02:58:50;97808.69;;;-3.99;100.00
16544;BME280;8384;47.996;7.786;2024-01-15T03:01:24;97947.41;;;-3.04;100.00
16544;BME280;8384;47.996;7.786;2024-01-15T03:03:49;97928.56;;;-2.95;100.00
16544;BME280;8384;47.996;7.786;2024-01-15T03:06:18;97868.19;;;-3.40;100.00
16544;BME280;8384;47.996;7.786;2024-01-15T03:08:46;97828.47;;;-3.71;100.00
16544;BME280;8384;47.996;7.786;2024-01-15T03:11:20;97880.44;;;-3.24;100.00
16544;BME280;8384;47.996;7.786;2024-01-15T03:13:49;97884.94;;;-3.24;100.00
16544;BME280;8384;47.996;7.786;2024-01-15T03:16:14;97801.69;;;-3.78;100.00
16544;BME280;8384;47.996;7.786;2024-01-15T03:18:45;97880.28;;;-3.16;100.00
16544;BME280;8384;47.996;7.786;2024-01-15T03:21:11;97838.66;;;-3.53;100.00
16544;BME280;8384;47.996;7.786;2024-01-15T03:23:39;97889.81;;;-3.06;100.00
16544;BME280;8384;47.996;7.786;2024-01-15T03:26:11;97840.91;;;-3.28;100.00
16544;BME280;8384;47.996;7.786;2024-01-15T03:28:39;97878.00;;;-2.90;100.00
16544;BME280;8384;47.996;7.786;2024-01-15T03:31:10;97771.34;;;-3.42;100.00
16544;BME280;8384;47.996;7.786;2024-01-15T03:33:38;97879.38;;;-3.01;100.00
16544;BME280;8384;47.996;7.786;2024-01-15T03:36:16;97837.78;;;-3.04;100.00
16544;BME280;8384;47.996;7.786;2024-01-15T03:38:41;97792.34;;;-3.39;100.00
16544;BME280;8384;47.996;7.786;2024-01-15T03:41:10;97826.97;;;-3.24;100.00
16544;BME280;8384;47.996;7.786;2024-01-15T03:43:35;97689.88;;;-3.88;100.00
16544;BME280;8384;47.996;7.786;2024-01-15T03:46:04;97807.59;;;-3.33;100.00
16544;BME280;8384;47.996;7.786;2024-01-15T03:48:35;97920.41;;;-2.52;100.00
16544;BME280;8384;47.996;7.786;2024-01-15T03:51:07;97858.31;;;-2.76;100.00
16544;BME280;8384;47.996;7.786;2024-01-15T03:53:38;97778.38;;;-3.34;100.00
16544;BME280;8384;47.996;7.786;2024-01-15T03:56:07;97910.41;;;-2.30;100.00
16544;BME280;8384;47.996;7.786;2024-01-15T03:58:35;97751.53;;;-3.19;100.00
16544;BME280;8384;47.996;7.786;2024-01-15T04:01:00;97877.13;;;-2.62;100.00
16544;BME280;8384;47.996;7.786;2024-01-15T04:03:26;97799.69;;;-3.12;100.00
16544;BME280;8384;47.996;7.786;2024-01-15T04:05:51;97863.97;;;-2.57;100.00
16544;BME280;8384;47.996;7.786;2024-01-15T04:08:20;97897.44;;;-2.33;100.00
16544;BME280;8384;47.996;7.786;2024-01-15T04:10:45;97858.00;;;-2.59;100.00
16544;BME280;8384;47.996;7.786;2024-01-15T04:13:10;97785.47;;;-3.20;100.00
16544;BME280;8384;47.996;7.786;2024-01-15T04:15:36;97774.34;;;-3.23;100.00
16544;BME280;8384;47.996;7.786;2024-01-15T04:18:02;97859.78;;;-2.73;100.00
16544;BME280;8384;47.996;7.786;2024-01-15T04:20:31;97779.97;;;-3.11;100.00
16544;BME280;8384;47.996;7.786;2024-01-15T04:22:59;97823.06;;;-2.93;100.00
16544;BME280;8384;47.996;7.786;2024-01-15T04:25:31;97814.22;;;-2.87;100.00
16544;BME280;8384;47.996;7.786;2024-01-15T04:27:59;97869.75;;;-2.53;100.00
16544;BME280;8384;47.996;7.786;2024-01-15T04:30:33;97854.88;;;-2.63;100.00
16544;BME280;8384;47.996;7.786;2024-01-15T04:33:02;97729.31;;;-3.62;100.00
16544;BME280;8384;47.996;7.786;2024-01-15T04:35:27;97794.34;;;-3.12;100.00
16544;BME280;8384;47.996;7.786;2024-01-15T04:37:52;97887.97;;;-2.29;100.00
16544;BME280;8384;47.996;7.786;2024-01-15T04:40:18;97816.97;;;-2.80;100.00
16544;BME280;8384;47.996;7.786;2024-01-15T04:42:50;97797.63;;;-3.17;100.00
16544;BME280;8384;47.996;7.786;2024-01-15T04:45:15;97760.66;;;-3.42;100.00
16544;BME280;8384;47.996;7.786;2024-01-15T04:47:43;97713.09;;;-3.88;100.00
16544;BME280;8384;47.996;7.786;2024-01-15T04:50:15;97799.72;;;-3.41;100.00
16544;BME280;8384;47.996;7.786;2024-01-15T04:52:40;97846.97;;;-3.20;100.00
16544;BME280;8384;47.996;7.786;2024-01-15T04:55:12;97828.44;;;-3.21;100.00
16544;BME280;8384;47.996;7.786;2024-01-15T04:57:43;97865.66;;;-3.20;100.00
16544;BME280;8384;47.996;7.786;2024-01-15T05:00:15;97790.84;;;-3.77;100.00
16544;BME280;8384;47.996;7.786;2024-01-15T05:02:41;97842.56;;;-3.27;100.00
16544;BME280;8384;47.996;7.786;2024-01-15T05:05:09;97839.81;;;-3.41;100.00
16544;BME280;8384;47.996;7.786;2024-01-15T05:07:40;97739.28;;;-3.99;100.00
16544;BME280;8384;47.996;7.786;2024-01-15T05:10:09;97870.13;;;-2.98;100.00
16544;BME280;8384;47.996;7.786;2024-01-15T05:12:40;97827.13;;;-3.32;100.00
16544;BME280;8384;47.996;7.786;2024-01-15T05:15:06;97936.75;;;-2.68;100.00
16544;BME280;8384;47.996;7.786;2024-01-15T05:17:43;97860.16;;;-3.11;100.00
16544;BME280;8384;47.996;7.786;2024-01-15T05:20:09;97880.91;;;-2.85;100.00
16544;BME280;8384;47.996;7.786;2024-01-15T05:22:35;97875.38;;;-2.77;100.00
16544;BME280;8384;47.996;7.786;2024-01-15T05:25:00;97813.66;;;-3.17;100.00
16544;BME280;8384;47.996;7.786;2024-01-15T05:27:29;97766.00;;;-3.42;100.00
16544;BME280;8384;47.996;7.786;2024-01-15T05:29:54;97911.13;;;-2.56;100.00
16544;BME280;8384;47.996;7.786;2024-01-15T05:32:25;97830.31;;;-3.15;100.00
16544;BME280;8384;47.996;7.786;2024-01-15T05:34:50;97908.59;;;-2.64;100.00
16544;BME280;8384;47.996;7.786;2024-01-15T05:37:16;97838.34;;;-3.15;100.00
16544;BME280;8384;47.996;7.786;2024-01-15T05:39:41;97794.69;;;-3.22;100.00
16544;BME280;8384;47.996;7.786;2024-01-15T05:42:09;97831.38;;;-3.09;100.00
16544;BME280;8384;47.996;7.786;2024-01-15T05:44:38;97821.63;;;-3.24;100.00
16544;BME280;8384;47.996;7.786;2024-01-15T05:47:06;97884.41;;;-2.84;100.00
16544;BME280;8384;47.996;7.786;2024-01-15T05:49:34;97847.72;;;-2.91;100.00
16544;BME280;8384;47.996;7.786;2024-01-15T05:52:02;97828.34;;;-2.99;100.00
16544;BME280;8384;47.996;7.786;2024-01-15T05:54:33;97814.34;;;-3.02;100.00
16544;BME280;8384;47.996;7.786;2024-01-15T05:57:02;97778.69;;;-3.16;100.00
16544;BME280;8384;47.996;7.786;2024-01-15T05:59:27;97784.88;;;-3.15;100.00
16544;BME280;8384;47.996;7.786;2024-01-15T06:01:56;97808.47;;;-2.90;100.00
16544;BME280;8384;47.996;7.786;2024-01-15T06:04:22;97896.59;;;-2.40;100.00
16544;BME280;8384;47.996;7.786;2024-01-15T06:06:47;97852.97;;;-2.76;100.00
16544;BME280;8384;47.996;7.786;2024-01-15T06:09:12;97799.53;;;-3.04;100.00
16544;BME280;8384;47.996;7.786;2024-01-15T06:11:37;97784.31;;;-3.04;100.00
16544;BME280;8384;47.996;7.786;2024-01-15T06:14:03;97885.28;;;-2.35;100.00
16544;BME280;8384;47.996;7.786;2024-01-15T06:16:28;97873.72;;;-2.36;100.00
16544;BME280;8384;47.996;7.786;2024-01-15T06:18:57;97778.78;;;-3.02;100.00
16544;BME280;8384;47.996;7.786;2024-01-15T06:21:28;97894.19;;;-2.21;100.00
16544;BME280;8384;47.996;7.786;2024-01-15T06:23:53;97836.78;;;-2.61;100.00
16544;BME280;8384;47.996;7.786;2024-01-15T06:26:25;97841.09;;;-2.60;100.00
16544;BME280;8384;47.996;7.786;2024-01-15T06:28:50;97826.75;;;-2.52;100.00
16544;BME280;8384;47.996;7.786;2024-01-15T06:31:15;97853.31;;;-2.44;100.00
16544;BME280;8384;47.996;7.786;2024-01-15T06:33:41;97808.72;;;-2.78;100.00
16544;BME280;8384;47.996;7.786;2024-01-15T06:36:06;97837.00;;;-2.56;100.00
16544;BME280;8384;47.996;7.786;2024-01-15T06:38:36;97696.78;;;-3.37;100.00
16544;BME280;8384;47.996;7.786;2024-01-15T06:41:07;97832.16;;;-2.38;100.00
16544;BME280;8384;47.996;7.786;2024-01-15T06:43:33;97868.28;;;-2.07;100.00
16544;BME280;8384;47.996;7.786;2024-01-15T06:45:58;97756.03;;;-2.78;100.00
16544;BME280;8384;47.996;7.786;2024-01-15T06:48:23;97805.00;;;-2.29;100.00
16544;BME280;8384;47.996;7.786;2024-01-15T06:50:49;97748.50;;;-2.61;100.00
16544;BME280;8384;47.996;7.786;2024-01-15T06:53:14;97826.69;;;-1.97;100.00
16544;BME280;8384;47.996;7.786;2024-01-15T06:55:39;97781.13;;;-2.30;100.00
16544;BME280;8384;47.996;7.786;2024-01-15T06:58:05;97721.09;;;-2.69;100.00
16544;BME280;8384;47.996;7.786;2024-01-15T07:00:36;97718.25;;;-2.54;100.00
16544;BME280;8384;47.996;7.786;2024-01-15T07:03:03;97736.59;;;-2.45;100.00
16544;BME280;8384;47.996;7.786;2024-01-15T07:05:31;97767.34;;;-2.20;100.00
16544;BME280;8384;47.996;7.786;2024-01-15T07:07:57;97784.44;;;-2.15;100.00
16544;BME280;8384;47.996;7.786;2024-01-15T07:10:22;97815.38;;;-2.05;100.00
16544;BME280;8384;47.996;7.786;2024-01-15T07:12:48;97741.59;;;-2.28;100.00
16544;BME280;8384;47.996;7.786;2024-01-15T07:15:19;97744.50;;;-2.16;100.00
16544;BME280;8384;47.996;7.786;2024-01-15T07:17:44;97786.72;;;-2.05;100.00
16544;BME280;8384;47.996;7.786;2024-01-15T07:20:10;97714.22;;;-2.17;100.00
16544;BME280;8384;47.996;7.786;2024-01-15T07:22:36;97749.44;;;-2.13;99.80
16544;BME280;8384;47.996;7.786;2024-01-15T07:25:01;97804.69;;;-1.72;99.81
16544;BME280;8384;47.996;7.786;2024-01-15T07:27:41;97767.19;;;-1.78;99.27
16544;BME280;8384;47.996;7.786;2024-01-15T07:30:13;97663.94;;;-2.35;98.76
16544;BME280;8384;47.996;7.786;2024-01-15T07:32:38;97768.41;;;-1.68;99.00
16544;BME280;8384;47.996;7.786;2024-01-15T07:35:10;97672.81;;;-2.28;98.95
16544;BME280;8384;47.996;7.786;2024-01-15T07:37:38;97656.53;;;-2.39;98.14
16544;BME280;8384;47.996;7.786;2024-01-15T07:40:04;97783.47;;;-1.67;98.03
16544;BME280;8384;47.996;7.786;2024-01-15T07:42:30;97812.28;;;-1.28;96.54
16544;BME280;8384;47.996;7.786;2024-01-15T07:44:56;97840.56;;;-1.32;96.08
16544;BME280;8384;47.996;7.786;2024-01-15T07:47:24;97716.69;;;-2.02;96.47
16544;BME280;8384;47.996;7.786;2024-01-15T07:49:49;97753.97;;;-1.87;96.00
16544;BME280;8384;47.996;7.786;2024-01-15T07:52:18;97709.50;;;-2.01;96.06
16544;BME280;8384;47.996;7.786;2024-01-15T07:54:43;97764.91;;;-1.75;95.25
16544;BME280;8384;47.996;7.786;2024-01-15T07:57:15;97730.09;;;-1.88;94.71
16544;BME280;8384;47.996;7.786;2024-01-15T07:59:40;97713.81;;;-2.00;94.30
16544;BME280;8384;47.996;7.786;2024-01-15T08:02:05;97761.22;;;-1.60;94.84
16544;BME280;8384;47.996;7.786;2024-01-15T08:04:31;97771.50;;;-1.44;93.38
16544;BME280;8384;47.996;7.786;2024-01-15T08:06:56;97817.19;;;-0.98;92.71
16544;BME280;8384;47.996;7.786;2024-01-15T08:09:22;97833.91;;;-0.96;92.12
16544;BME280;8384;47.996;7.786;2024-01-15T08:11:48;97733.13;;;-1.44;92.12
16544;BME280;8384;47.996;7.786;2024-01-15T08:14:20;97734.38;;;-1.67;91.90
16544;BME280;8384;47.996;7.786;2024-01-15T08:16:45;97757.69;;;-1.61;92.73
16544;BME280;8384;47.996;7.786;2024-01-15T08:19:11;97769.44;;;-1.42;92.61
16544;BME280;8384;47.996;7.786;2024-01-15T08:21:36;97793.34;;;-1.27;92.71
16544;BME280;8384;47.996;7.786;2024-01-15T08:24:05;97660.84;;;-2.25;93.16
16544;BME280;8384;47.996;7.786;2024-01-15T08:26:36;97745.72;;;-1.58;93.79
16544;BME280;8384;47.996;7.786;2024-01-15T08:29:01;97789.38;;;-1.11;94.37
16544;BME280;8384;47.996;7.786;2024-01-15T08:31:30;97688.25;;;-1.62;94.15
16544;BME280;8384;47.996;7.786;2024-01-15T08:33:55;97739.09;;;-1.29;94.01
16544;BME280;8384;47.996;7.786;2024-01-15T08:36:23;97720.16;;;-1.41;94.83
16544;BME280;8384;47.996;7.786;2024-01-15T08:38:51;97722.81;;;-1.41;95.15
16544;BME280;8384;47.996;7.786;2024-01-15T08:41:16;97829.13;;;-0.74;95.46
16544;BME280;8384;47.996;7.786;2024-01-15T08:43:42;97731.69;;;-1.47;95.67
16544;BME280;8384;47.996;7.786;2024-01-15T08:46:07;97784.88;;;-1.30;96.28
16544;BME280;8384;47.996;7.786;2024-01-15T08:48:32;97783.41;;;-1.26;95.92
16544;BME280;8384;47.996;7.786;2024-01-15T08:50:58;97737.28;;;-1.48;95.47
16544;BME280;8384;47.996;7.786;2024-01-15T08:53:23;97720.78;;;-1.52;94.79
16544;BME280;8384;47.996;7.786;2024-01-15T08:55:49;97735.00;;;-1.45;95.16
16544;BME280;8384;47.996;7.786;2024-01-15T08:58:17;97730.84;;;-1.34;94.42
16544;BME280;8384;47.996;7.786;2024-01-15T09:00:43;97734.16;;;-1.32;94.22
16544;BME280;8384;47.996;7.786;2024-01-15T09:03:11;97799.25;;;-0.98;93.58
16544;BME280;8384;47.996;7.786;2024-01-15T09:05:36;97731.41;;;-1.12;93.24
16544;BME280;8384;47.996;7.786;2024-01-15T09:08:02;97751.78;;;-0.97;92.40
16544;BME280;8384;47.996;7.786;2024-01-15T09:10:27;97758.81;;;-0.96;92.50
16544;BME280;8384;47.996;7.786;2024-01-15T09:12:53;97713.25;;;-1.16;92.35
16544;BME280;8384;47.996;7.786;2024-01-15T09:15:21;97757.06;;;-0.70;91.64
16544;BME280;8384;47.996;7.786;2024-01-15T09:17:50;97660.47;;;-1.16;90.57
16544;BME280;8384;47.996;7.786;2024-01-15T09:20:15;97712.75;;;-0.80;90.91
16544;BME280;8384;47.996;7.786;2024-01-15T09:22:43;97778.50;;;-0.25;90.12
16544;BME280;8384;47.996;7.786;2024-01-15T09:25:09;97684.88;;;-0.85;89.49
16544;BME280;8384;47.996;7.786;2024-01-15T09:27:35;97802.59;;;-0.50;89.18
16544;BME280;8384;47.996;7.786;2024-01-15T09:30:02;97789.44;;;-0.20;89.32
16544;BME280;8384;47.996;7.786;2024-01-15T09:32:27;97687.28;;;-1.16;88.53
16544;BME280;8384;47.996;7.786;2024-01-15T09:34:53;97821.94;;;-0.28;87.62
16544;BME280;8384;47.996;7.786;2024-01-15T09:37:18;97722.63;;;-0.80;88.05
16544;BME280;8384;47.996;7.786;2024-01-15T09:39:43;97700.34;;;-0.81;87.83
16544;BME280;8384;47.996;7.786;2024-01-15T09:42:08;97738.06;;;-0.69;86.74
16544;BME280;8384;47.996;7.786;2024-01-15T09:44:36;97733.47;;;-0.62;87.18
16544;BME280;8384;47.996;7.786;2024-01-15T09:47:01;97708.50;;;-0.62;86.39
16544;BME280;8384;47.996;7.786;2024-01-15T09:49:33;97784.06;;;0.12;86.85
16544;BME280;8384;47.996;7.786;2024-01-15T09:51:59;97688.56;;;-0.41;84.67
16544;BME280;8384;47.996;7.786;2024-01-15T09:54:33;97801.78;;;0.20;85.15
16544;BME280;8384;47.996;7.786;2024-01-15T09:57:00;97689.97;;;-0.70;85.43
16544;BME280;8384;47.996;7.786;2024-01-15T09:59:26;97780.28;;;0.20;84.91
16544;BME280;8384;47.996;7.786;2024-01-15T10:01:56;97704.38;;;-0.58;85.23
16544;BME280;8384;47.996;7.786;2024-01-15T10:04:22;97732.47;;;-0.28;85.19
16544;BME280;8384;47.996;7.786;2024-01-15T10:06:56;97726.06;;;-0.27;84.85
16544;BME280;8384;47.996;7.786;2024-01-15T10:09:22;97677.72;;;-0.59;85.16
16544;BME280;8384;47.996;7.786;2024-01-15T10:11:48;97708.09;;;-0.59;85.09
16544;BME280;8384;47.996;7.786;2024-01-15T10:14:16;97686.34;;;-0.51;85.35
16544;BME280;8384;47.996;7.786;2024-01-15T10:16:42;97795.81;;;0.18;85.19
16544;BME280;8384;47.996;7.786;2024-01-15T10:19:08;97687.84;;;-0.55;84.21
16544;BME280;8384;47.996;7.786;2024-01-15T10:21:42;97809.66;;;0.22;84.69
16544;BME280;8384;47.996;7.786;2024-01-15T10:24:11;97785.41;;;-0.04;84.79
16544;BME280;8384;47.996;7.786;2024-01-15T10:26:37;97695.88;;;-0.55;84.29
16544;BME280;8384;47.996;7.786;2024-01-15T10:29:05;97678.88;;;-0.81;85.63
16544;BME280;8384;47.996;7.786;2024-01-15T10:31:30;97749.28;;;-0.08;85.64
16544;BME280;8384;47.996;7.786;2024-01-15T10:34:10;97760.59;;;0.01;85.77
16544;BME280;8384;47.996;7.786;2024-01-15T10:36:39;97732.66;;;-0.23;85.89
16544;BME280;8384;47.996;7.786;2024-01-15T10:39:06;97760.88;;;0.18;85.37
16544;BME280;8384;47.996;7.786;2024-01-15T10:41:37;97736.31;;;0.14;85.85
16544;BME280;8384;47.996;7.786;2024-01-15T10:44:04;97793.59;;;0.40;85.48
16544;BME280;8384;47.996;7.786;2024-01-15T10:46:29;97711.91;;;0.16;84.75
16544;BME280;8384;47.996;7.786;2024-01-15T10:48:56;97689.34;;;-0.34;84.50
16544;BME280;8384;47.996;7.786;2024-01-15T10:51:23;97695.00;;;-0.17;84.70
16544;BME280;8384;47.996;7.786;2024-01-15T10:53:51;97769.31;;;-0.04;85.02
16544;BME280;8384;47.996;7.786;2024-01-15T10:56:18;97737.34;;;-0.44;86.92
16544;BME280;8384;47.996;7.786;2024-01-15T10:58:44;97688.72;;;-0.36;86.67
16544;BME280;8384;47.996;7.786;2024-01-15T11:01:11;97715.94;;;-0.25;85.63
16544;BME280;8384;47.996;7.786;2024-01-15T11:03:37;97703.72;;;-0.53;85.49
16544;BME280;8384;47.996;7.786;2024-01-15T11:06:03;97737.97;;;-0.17;85.72
16544;BME280;8384;47.996;7.786;2024-01-15T11:08:42;97731.72;;;-0.42;86.72
16544;BME280;8384;47.996;7.786;2024-01-15T11:11:07;97809.22;;;0.25;86.17
16544;BME280;8384;47.996;7.786;2024-01-15T11:16:03;97719.34;;;-0.11;85.30
16544;BME280;8384;47.996;7.786;2024-01-15T11:18:30;97731.88;;;-0.31;86.13
16544;BME280;8384;47.996;7.786;2024-01-15T11:26:48;97797.56;;;0.31;86.09
16544;BME280;8384;47.996;7.786;2024-01-15T11:29:33;97791.28;;;0.44;86.31
16544;BME280;8384;47.996;7.786;2024-01-15T11:34:54;97790.34;;;0.57;85.03
16544;BME280;8384;47.996;7.786;2024-01-15T11:37:20;97705.38;;;0.05;85.25
16544;BME280;8384;47.996;7.786;2024-01-15T11:39:46;97771.13;;;0.28;84.48
16544;BME280;8384;47.996;7.786;2024-01-15T11:42:12;97722.09;;;0.07;84.51
16544;BME280;8384;47.996;7.786;2024-01-15T11:44:38;97705.38;;;0.05;84.70
16544;BME280;8384;47.996;7.786;2024-01-15T11:47:05;97675.22;;;-0.22;84.54
16544;BME280;8384;47.996;7.786;2024-01-15T11:49:59;97831.69;;;0.63;84.82
16544;BME280;8384;47.996;7.786;2024-01-15T11:52:39;97738.44;;;0.06;84.46
16544;BME280;8384;47.996;7.786;2024-01-15T11:55:50;97796.38;;;0.52;85.46
16544;BME280;8384;47.996;7.786;2024-01-15T11:57:57;97686.50;;;-0.13;85.17
16544;BME280;8384;47.996;7.786;2024-01-15T12:00:23;97721.59;;;0.42;84.61
16544;BME280;8384;47.996;7.786;2024-01-15T12:02:49;97784.78;;;0.77;84.26
16544;BME280;8384;47.996;7.786;2024-01-15T12:05:19;97756.88;;;0.53;85.26
16544;BME280;8384;47.996;7.786;2024-01-15T12:07:49;97692.47;;;0.14;85.21
16544;BME280;8384;47.996;7.786;2024-01-15T12:10:24;97677.19;;;-0.11;84.53
16544;BME280;8384;47.996;7.786;2024-01-15T12:13:16;97714.78;;;0.40;85.38
16544;BME280;8384;47.996;7.786;2024-01-15T12:15:44;97702.97;;;0.85;84.08
16544;BME280;8384;47.996;7.786;2024-01-15T12:18:15;97732.88;;;0.95;82.54
16544;BME280;8384;47.996;7.786;2024-01-15T12:20:41;97672.53;;;0.47;83.52
16544;BME280;8384;47.996;7.786;2024-01-15T12:23:08;97703.03;;;0.78;82.65
16544;BME280;8384;47.996;7.786;2024-01-15T12:25:33;97762.03;;;0.98;82.30
16544;BME280;8384;47.996;7.786;2024-01-15T12:28:00;97654.50;;;0.29;82.33
16544;BME280;8384;47.996;7.786;2024-01-15T12:30:30;97724.44;;;0.92;82.23
16544;BME280;8384;47.996;7.786;2024-01-15T12:32:57;97637.41;;;0.23;82.00
16544;BME280;8384;47.996;7.786;2024-01-15T12:35:24;97693.25;;;0.47;83.74
16544;BME280;8384;47.996;7.786;2024-01-15T12:37:51;97752.16;;;0.73;83.69
16544;BME280;8384;47.996;7.786;2024-01-15T12:40:19;97687.00;;;0.27;83.58
16544;BME280;8384;47.996;7.786;2024-01-15T12:42:45;97745.31;;;0.71;82.90
16544;BME280;8384;47.996;7.786;2024-01-15T12:45:12;97693.50;;;0.38;82.59
16544;BME280;8384;47.996;7.786;2024-01-15T12:47:38;97691.16;;;0.23;82.94
16544;BME280;8384;47.996;7.786;2024-01-15T12:50:11;97655.63;;;0.21;82.60
16544;BME280;8384;47.996;7.786;2024-01-15T12:52:40;97739.94;;;0.71;82.46
16544;BME280;8384;47.996;7.786;2024-01-15T12:55:14;97756.84;;;0.78;82.78
16544;BME280;8384;47.996;7.786;2024-01-15T12:57:43;97639.81;;;0.32;82.12
16544;BME280;8384;47.996;7.786;2024-01-15T13:00:10;97722.38;;;0.50;81.31
16544;BME280;8384;47.996;7.786;2024-01-15T13:02:40;97733.50;;;0.72;81.78
16544;BME280;8384;47.996;7.786;2024-01-15T13:05:13;97757.97;;;0.70;81.92
16544;BME280;8384;47.996;7.786;2024-01-15T13:07:42;97763.50;;;0.76;82.96
16544;BME280;8384;47.996;7.786;2024-01-15T13:10:10;97775.94;;;0.70;82.50
16544;BME280;8384;47.996;7.786;2024-01-15T13:12:37;97688.22;;;0.32;82.68
16544;BME280;8384;47.996;7.786;2024-01-15T13:15:09;97641.63;;;-0.06;82.34
16544;BME280;8384;47.996;7.786;2024-01-15T13:17:43;97704.09;;;0.33;82.31
16544;BME280;8384;47.996;7.786;2024-01-15T13:20:12;97768.66;;;0.77;82.99